sensor_id;sensor_type;location;lat;lon;timestamp;temperature;humidity
32348;DHT22;18821;44.800;10.326;2023-03-20T00:02:14;11.50;96.70
32348;DHT22;18821;44.800;10.326;2023-03-20T00:04:42;11.60;96.50
32348;DHT22;18821;44.800;10.326;2023-03-20T00:07:08;11.60;96.60
32348;DHT22;18821;44.800;10.326;2023-03-20T00:09:37;11.60;96.40
32348;DHT22;18821;44.800;10.326;2023-03-20T00:12:04;11.60;96.30
32348;DHT22;18821;44.800;10.326;2023-03-20T00:14:30;11.60;96.10
32348;DHT22;18821;44.800;10.326;2023-03-20T00:16:56;11.60;96.10
32348;DHT22;18821;44.800;10.326;2023-03-20T00:19:25;11.60;96.10
32348;DHT22;18821;44.800;10.326;2023-03-20T00:21:52;11.60;96.20
32348;DHT22;18821;44.800;10.326;2023-03-20T00:24:19;11.60;96.10
32348;DHT22;18821;44.800;10.326;2023-03-20T00:26:47;11.60;96.20
32348;DHT22;18821;44.800;10.326;2023-03-20T00:29:24;11.60;95.40
32348;DHT22;18821;44.800;10.326;2023-03-20T00:31:52;11.60;95.30
32348;DHT22;18821;44.800;10.326;2023-03-20T00:34:20;11.50;96.20
32348;DHT22;18821;44.800;10.326;2023-03-20T00:36:48;11.40;98.20
32348;DHT22;18821;44.800;10.326;2023-03-20T00:39:14;11.40;99.10
32348;DHT22;18821;44.800;10.326;2023-03-20T00:41:43;11.50;99.90
32348;DHT22;18821;44.800;10.326;2023-03-20T00:47:00;11.50;99.90
32348;DHT22;18821;44.800;10.326;2023-03-20T00:49:32;11.50;99.90
32348;DHT22;18821;44.800;10.326;2023-03-20T00:52:00;11.50;99.90
32348;DHT22;18821;44.800;10.326;2023-03-20T00:54:27;11.50;99.40
32348;DHT22;18821;44.800;10.326;2023-03-20T00:59:28;11.50;98.90
32348;DHT22;18821;44.800;10.326;2023-03-20T01:01:56;11.60;98.40
32348;DHT22;18821;44.800;10.326;2023-03-20T01:04:23;11.40;97.40
32348;DHT22;18821;44.800;10.326;2023-03-20T01:06:51;11.50;97.10
32348;DHT22;18821;44.800;10.326;2023-03-20T01:09:17;11.50;97.00
32348;DHT22;18821;44.800;10.326;2023-03-20T01:11:44;11.50;97.20
32348;DHT22;18821;44.800;10.326;2023-03-20T01:14:15;11.50;97.00
32348;DHT22;18821;44.800;10.326;2023-03-20T01:16:41;11.50;97.20
32348;DHT22;18821;44.800;10.326;2023-03-20T01:19:11;11.40;97.60
32348;DHT22;18821;44.800;10.326;2023-03-20T01:21:38;11.40;97.80
32348;DHT22;18821;44.800;10.326;2023-03-20T01:24:05;11.30;99.20
32348;DHT22;18821;44.800;10.326;2023-03-20T01:26:38;11.20;99.90
32348;DHT22;18821;44.800;10.326;2023-03-20T01:29:17;11.10;99.90
32348;DHT22;18821;44.800;10.326;2023-03-20T01:31:43;11.10;99.90
32348;DHT22;18821;44.800;10.326;2023-03-20T01:34:10;11.00;99.90
32348;DHT22;18821;44.800;10.326;2023-03-20T01:36:37;10.90;99.90
32348;DHT22;18821;44.800;10.326;2023-03-20T01:39:04;10.90;99.90
32348;DHT22;18821;44.800;10.326;2023-03-20T01:41:30;10.80;99.90
32348;DHT22;18821;44.800;10.326;2023-03-20T01:43:57;10.90;99.90
32348;DHT22;18821;44.800;10.326;2023-03-20T01:46:30;10.90;99.90
32348;DHT22;18821;44.800;10.326;2023-03-20T01:51:48;11.00;99.90
32348;DHT22;18821;44.800;10.326;2023-03-20T01:54:19;11.10;99.90
32348;DHT22;18821;44.800;10.326;2023-03-20T01:57:03;11.10;99.90
32348;DHT22;18821;44.800;10.326;2023-03-20T01:59:37;11.10;99.90
32348;DHT22;18821;44.800;10.326;2023-03-20T02:02:07;11.10;99.90
32348;DHT22;18821;44.800;10.326;2023-03-20T02:04:41;11.10;99.90
32348;DHT22;18821;44.800;10.326;2023-03-20T02:07:12;11.00;99.90
32348;DHT22;18821;44.800;10.326;2023-03-20T02:09:46;11.00;99.90
32348;DHT22;18821;44.800;10.326;2023-03-20T02:12:19;11.00;99.90
32348;DHT22;18821;44.800;10.326;2023-03-20T02:14:46;10.90;99.90
32348;DHT22;18821;44.800;10.326;2023-03-20T02:17:30;10.90;99.90
32348;DHT22;18821;44.800;10.326;2023-03-20T02:42:37;10.90;99.90
32348;DHT22;18821;44.800;10.326;2023-03-20T02:45:40;10.90;99.90
32348;DHT22;18821;44.800;10.326;2023-03-20T02:48:38;10.90;99.90
32348;DHT22;18821;44.800;10.326;2023-03-20T02:54:29;10.90;99.90
32348;DHT22;18821;44.800;10.326;2023-03-20T02:57:06;10.90;99.90
32348;DHT22;18821;44.800;10.326;2023-03-20T03:02:36;10.90;99.90
32348;DHT22;18821;44.800;10.326;2023-03-20T03:05:12;10.80;99.90
32348;DHT22;18821;44.800;10.326;2023-03-20T03:07:42;10.80;99.90
32348;DHT22;18821;44.800;10.326;2023-03-20T03:10:18;10.80;99.90
32348;DHT22;18821;44.800;10.326;2023-03-20T03:12:48;10.80;99.90
32348;DHT22;18821;44.800;10.326;2023-03-20T03:15:33;10.80;99.90
32348;DHT22;18821;44.800;10.326;2023-03-20T03:18:02;10.90;99.90
32348;DHT22;18821;44.800;10.326;2023-03-20T03:20:36;10.90;99.90
32348;DHT22;18821;44.800;10.326;2023-03-20T03:23:04;10.90;99.90
32348;DHT22;18821;44.800;10.326;2023-03-20T03:25:38;10.90;99.90
32348;DHT22;18821;44.800;10.326;2023-03-20T03:28:18;10.90;99.90
32348;DHT22;18821;44.800;10.326;2023-03-20T03:30:49;10.90;99.90
32348;DHT22;18821;44.800;10.326;2023-03-20T03:33:21;11.00;99.90
32348;DHT22;18821;44.800;10.326;2023-03-20T03:35:49;11.00;99.90
32348;DHT22;18821;44.800;10.326;2023-03-20T03:38:35;11.00;99.90
32348;DHT22;18821;44.800;10.326;2023-03-20T03:41:43;11.00;99.90
32348;DHT22;18821;44.800;10.326;2023-03-20T03:46:49;11.10;99.90
32348;DHT22;18821;44.800;10.326;2023-03-20T03:49:33;11.20;99.90
32348;DHT22;18821;44.800;10.326;2023-03-20T03:52:04;11.10;99.90
32348;DHT22;18821;44.800;10.326;2023-03-20T03:57:59;11.20;99.90
32348;DHT22;18821;44.800;10.326;2023-03-20T04:00:27;11.20;99.90
32348;DHT22;18821;44.800;10.326;2023-03-20T04:02:57;11.10;99.90
32348;DHT22;18821;44.800;10.326;2023-03-20T04:05:26;11.20;99.90
32348;DHT22;18821;44.800;10.326;2023-03-20T04:07:57;11.20;99.90
32348;DHT22;18821;44.800;10.326;2023-03-20T04:10:24;11.10;99.90
32348;DHT22;18821;44.800;10.326;2023-03-20T04:12:50;11.10;99.90
32348;DHT22;18821;44.800;10.326;2023-03-20T04:15:16;11.10;99.90
32348;DHT22;18821;44.800;10.326;2023-03-20T04:17:43;11.00;99.90
32348;DHT22;18821;44.800;10.326;2023-03-20T04:20:12;11.00;99.90
32348;DHT22;18821;44.800;10.326;2023-03-20T04:22:39;10.90;99.90
32348;DHT22;18821;44.800;10.326;2023-03-20T04:25:08;10.90;99.90
32348;DHT22;18821;44.800;10.326;2023-03-20T04:27:35;10.80;99.90
32348;DHT22;18821;44.800;10.326;2023-03-20T04:30:08;10.80;99.90
32348;DHT22;18821;44.800;10.326;2023-03-20T04:33:00;10.80;99.90
32348;DHT22;18821;44.800;10.326;2023-03-20T04:35:35;10.80;99.90
32348;DHT22;18821;44.800;10.326;2023-03-20T04:38:08;10.80;99.90
32348;DHT22;18821;44.800;10.326;2023-03-20T04:40:34;10.80;99.90
32348;DHT22;18821;44.800;10.326;2023-03-20T04:43:01;10.90;99.90
32348;DHT22;18821;44.800;10.326;2023-03-20T04:45:28;10.90;99.90
32348;DHT22;18821;44.800;10.326;2023-03-20T04:47:54;10.90;99.90
32348;DHT22;18821;44.800;10.326;2023-03-20T04:50:21;10.90;99.90
32348;DHT22;18821;44.800;10.326;2023-03-20T04:52:50;10.80;99.90
32348;DHT22;18821;44.800;10.326;2023-03-20T04:55:16;10.80;99.90
32348;DHT22;18821;44.800;10.326;2023-03-20T04:57:42;10.80;99.90
32348;DHT22;18821;44.800;10.326;2023-03-20T05:00:10;10.70;99.90
32348;DHT22;18821;44.800;10.326;2023-03-20T05:02:36;10.70;99.90
32348;DHT22;18821;44.800;10.326;2023-03-20T05:05:03;10.70;99.90
32348;DHT22;18821;44.800;10.326;2023-03-20T05:07:30;10.70;99.90
32348;DHT22;18821;44.800;10.326;2023-03-20T05:10:04;10.70;99.90
32348;DHT22;18821;44.800;10.326;2023-03-20T05:12:37;10.70;99.90
32348;DHT22;18821;44.800;10.326;2023-03-20T05:15:24;10.70;99.90
32348;DHT22;18821;44.800;10.326;2023-03-20T05:18:09;10.70;99.90
32348;DHT22;18821;44.800;10.326;2023-03-20T05:20:53;10.60;99.90
32348;DHT22;18821;44.800;10.326;2023-03-20T05:23:29;10.60;99.90
32348;DHT22;18821;44.800;10.326;2023-03-20T05:26:19;10.60;99.90
32348;DHT22;18821;44.800;10.326;2023-03-20T05:29:17;10.70;99.90
32348;DHT22;18821;44.800;10.326;2023-03-20T05:32:02;10.70;99.90
32348;DHT22;18821;44.800;10.326;2023-03-20T05:34:45;10.80;99.90
32348;DHT22;18821;44.800;10.326;2023-03-20T05:37:31;10.70;99.90
32348;DHT22;18821;44.800;10.326;2023-03-20T05:40:12;10.70;99.90
32348;DHT22;18821;44.800;10.326;2023-03-20T05:42:57;10.70;99.90
32348;DHT22;18821;44.800;10.326;2023-03-20T05:45:41;10.80;99.90
32348;DHT22;18821;44.800;10.326;2023-03-20T05:48:18;10.80;99.90
32348;DHT22;18821;44.800;10.326;2023-03-20T05:51:04;10.80;99.90
32348;DHT22;18821;44.800;10.326;2023-03-20T05:53:38;10.80;99.90
32348;DHT22;18821;44.800;10.326;2023-03-20T05:56:13;10.80;99.90
32348;DHT22;18821;44.800;10.326;2023-03-20T05:58:39;10.70;99.90
32348;DHT22;18821;44.800;10.326;2023-03-20T06:01:34;10.80;99.90
32348;DHT22;18821;44.800;10.326;2023-03-20T06:04:21;10.70;99.90
32348;DHT22;18821;44.800;10.326;2023-03-20T06:07:17;10.70;99.90
32348;DHT22;18821;44.800;10.326;2023-03-20T06:09:51;10.70;99.90
32348;DHT22;18821;44.800;10.326;2023-03-20T06:12:17;10.80;99.90
32348;DHT22;18821;44.800;10.326;2023-03-20T06:14:43;10.80;99.90
32348;DHT22;18821;44.800;10.326;2023-03-20T06:17:10;10.70;99.90
32348;DHT22;18821;44.800;10.326;2023-03-20T06:19:36;10.80;99.90
32348;DHT22;18821;44.800;10.326;2023-03-20T06:22:03;10.80;99.90
32348;DHT22;18821;44.800;10.326;2023-03-20T06:24:29;10.80;99.90
32348;DHT22;18821;44.800;10.326;2023-03-20T06:26:56;10.70;99.90
32348;DHT22;18821;44.800;10.326;2023-03-20T06:29:24;10.80;99.90
32348;DHT22;18821;44.800;10.326;2023-03-20T06:31:53;10.80;99.90
32348;DHT22;18821;44.800;10.326;2023-03-20T06:34:26;10.70;99.90
32348;DHT22;18821;44.800;10.326;2023-03-20T06:36:56;10.80;99.90
32348;DHT22;18821;44.800;10.326;2023-03-20T06:39:23;10.80;99.90
32348;DHT22;18821;44.800;10.326;2023-03-20T06:41:49;10.90;99.90
32348;DHT22;18821;44.800;10.326;2023-03-20T06:44:16;10.90;99.90
32348;DHT22;18821;44.800;10.326;2023-03-20T06:47:11;11.00;99.90
32348;DHT22;18821;44.800;10.326;2023-03-20T06:49:37;11.00;99.90
32348;DHT22;18821;44.800;10.326;2023-03-20T06:52:04;11.00;99.90
32348;DHT22;18821;44.800;10.326;2023-03-20T06:54:32;11.10;99.90
32348;DHT22;18821;44.800;10.326;2023-03-20T06:56:58;11.10;99.90
32348;DHT22;18821;44.800;10.326;2023-03-20T06:59:24;11.10;99.90
32348;DHT22;18821;44.800;10.326;2023-03-20T07:01:55;11.20;99.90
32348;DHT22;18821;44.800;10.326;2023-03-20T07:04:22;11.20;99.90
32348;DHT22;18821;44.800;10.326;2023-03-20T07:06:51;11.10;99.90
32348;DHT22;18821;44.800;10.326;2023-03-20T07:09:17;11.10;99.90
32348;DHT22;18821;44.800;10.326;2023-03-20T07:11:43;11.10;99.90
32348;DHT22;18821;44.800;10.326;2023-03-20T07:14:11;11.10;99.90
32348;DHT22;18821;44.800;10.326;2023-03-20T07:16:59;11.20;99.90
32348;DHT22;18821;44.800;10.326;2023-03-20T07:19:25;11.20;99.90
32348;DHT22;18821;44.800;10.326;2023-03-20T07:21:59;11.20;99.90
32348;DHT22;18821;44.800;10.326;2023-03-20T07:24:34;11.30;99.90
32348;DHT22;18821;44.800;10.326;2023-03-20T07:27:00;11.40;99.90
32348;DHT22;18821;44.800;10.326;2023-03-20T07:29:27;11.40;99.90
32348;DHT22;18821;44.800;10.326;2023-03-20T07:31:54;11.40;99.90
32348;DHT22;18821;44.800;10.326;2023-03-20T07:34:24;11.30;99.90
32348;DHT22;18821;44.800;10.326;2023-03-20T07:36:51;11.30;99.90
32348;DHT22;18821;44.800;10.326;2023-03-20T07:39:20;11.30;99.90
32348;DHT22;18821;44.800;10.326;2023-03-20T07:41:57;11.40;99.90
32348;DHT22;18821;44.800;10.326;2023-03-20T07:44:48;11.40;99.90
32348;DHT22;18821;44.800;10.326;2023-03-20T07:47:14;11.40;99.90
32348;DHT22;18821;44.800;10.326;2023-03-20T07:49:40;11.50;99.90
32348;DHT22;18821;44.800;10.326;2023-03-20T07:52:07;11.60;99.90
32348;DHT22;18821;44.800;10.326;2023-03-20T07:54:33;11.60;99.90
32348;DHT22;18821;44.800;10.326;2023-03-20T07:56:59;11.70;99.90
32348;DHT22;18821;44.800;10.326;2023-03-20T07:59:26;11.70;99.90
32348;DHT22;18821;44.800;10.326;2023-03-20T08:01:52;11.80;99.90
32348;DHT22;18821;44.800;10.326;2023-03-20T08:04:18;11.70;99.10
32348;DHT22;18821;44.800;10.326;2023-03-20T08:06:47;11.70;98.50
32348;DHT22;18821;44.800;10.326;2023-03-20T08:09:13;11.80;98.40
32348;DHT22;18821;44.800;10.326;2023-03-20T08:11:39;11.80;97.20
32348;DHT22;18821;44.800;10.326;2023-03-20T08:14:05;12.00;95.70
32348;DHT22;18821;44.800;10.326;2023-03-20T08:16:31;12.00;92.90
32348;DHT22;18821;44.800;10.326;2023-03-20T08:18:56;11.90;92.40
32348;DHT22;18821;44.800;10.326;2023-03-20T08:21:30;11.90;94.30
32348;DHT22;18821;44.800;10.326;2023-03-20T08:23:57;12.00;95.50
32348;DHT22;18821;44.800;10.326;2023-03-20T08:26:23;12.20;95.50
32348;DHT22;18821;44.800;10.326;2023-03-20T08:28:50;12.30;91.40
32348;DHT22;18821;44.800;10.326;2023-03-20T08:31:16;12.50;90.30
32348;DHT22;18821;44.800;10.326;2023-03-20T08:33:46;12.60;81.50
32348;DHT22;18821;44.800;10.326;2023-03-20T08:36:12;12.90;76.80
32348;DHT22;18821;44.800;10.326;2023-03-20T08:38:41;13.20;53.10
32348;DHT22;18821;44.800;10.326;2023-03-20T08:41:07;13.10;43.20
32348;DHT22;18821;44.800;10.326;2023-03-20T08:43:33;13.20;47.30
32348;DHT22;18821;44.800;10.326;2023-03-20T08:46:00;13.30;49.20
32348;DHT22;18821;44.800;10.326;2023-03-20T08:48:26;13.40;39.80
32348;DHT22;18821;44.800;10.326;2023-03-20T08:50:52;13.60;42.60
32348;DHT22;18821;44.800;10.326;2023-03-20T08:53:18;14.00;33.10
32348;DHT22;18821;44.800;10.326;2023-03-20T08:55:48;14.10;10.80
32348;DHT22;18821;44.800;10.326;2023-03-20T08:58:15;14.20;7.60
32348;DHT22;18821;44.800;10.326;2023-03-20T09:00:41;14.30;1.00
32348;DHT22;18821;44.800;10.326;2023-03-20T09:03:14;14.10;1.00
32348;DHT22;18821;44.800;10.326;2023-03-20T09:05:43;14.10;1.00
32348;DHT22;18821;44.800;10.326;2023-03-20T09:08:11;13.70;1.00
32348;DHT22;18821;44.800;10.326;2023-03-20T09:10:37;13.70;1.00
32348;DHT22;18821;44.800;10.326;2023-03-20T09:13:03;13.60;1.00
32348;DHT22;18821;44.800;10.326;2023-03-20T09:15:29;13.50;1.00
32348;DHT22;18821;44.800;10.326;2023-03-20T09:17:55;13.50;1.00
32348;DHT22;18821;44.800;10.326;2023-03-20T09:20:21;13.60;1.00
32348;DHT22;18821;44.800;10.326;2023-03-20T09:22:47;13.70;1.00
32348;DHT22;18821;44.800;10.326;2023-03-20T09:25:13;14.00;1.00
32348;DHT22;18821;44.800;10.326;2023-03-20T09:27:39;14.00;1.00
32348;DHT22;18821;44.800;10.326;2023-03-20T09:30:06;14.20;1.00
32348;DHT22;18821;44.800;10.326;2023-03-20T09:32:33;14.40;1.00
32348;DHT22;18821;44.800;10.326;2023-03-20T09:35:00;14.50;1.00
32348;DHT22;18821;44.800;10.326;2023-03-20T09:37:26;14.40;1.00
32348;DHT22;18821;44.800;10.326;2023-03-20T09:39:52;14.40;1.00
32348;DHT22;18821;44.800;10.326;2023-03-20T09:45:07;14.20;1.00
32348;DHT22;18821;44.800;10.326;2023-03-20T09:48:32;13.90;1.00
32348;DHT22;18821;44.800;10.326;2023-03-20T09:53:30;14.10;1.00
32348;DHT22;18821;44.800;10.326;2023-03-20T09:55:58;13.80;1.00
32348;DHT22;18821;44.800;10.326;2023-03-20T09:58:29;13.70;1.00
32348;DHT22;18821;44.800;10.326;2023-03-20T10:00:58;13.70;1.00
32348;DHT22;18821;44.800;10.326;2023-03-20T10:03:29;13.90;1.00
32348;DHT22;18821;44.800;10.326;2023-03-20T10:06:00;14.10;1.00
32348;DHT22;18821;44.800;10.326;2023-03-20T10:08:36;14.20;1.00
32348;DHT22;18821;44.800;10.326;2023-03-20T10:19:18;14.80;1.00
32348;DHT22;18821;44.800;10.326;2023-03-20T10:22:29;14.70;1.00
32348;DHT22;18821;44.800;10.326;2023-03-20T10:24:39;14.70;1.00
32348;DHT22;18821;44.800;10.326;2023-03-20T10:27:19;14.40;1.00
32348;DHT22;18821;44.800;10.326;2023-03-20T10:30:06;14.50;1.00
32348;DHT22;18821;44.800;10.326;2023-03-20T10:32:46;14.30;1.00
32348;DHT22;18821;44.800;10.326;2023-03-20T10:35:20;14.50;1.00
32348;DHT22;18821;44.800;10.326;2023-03-20T10:40:34;14.50;1.00
32348;DHT22;18821;44.800;10.326;2023-03-20T10:43:13;14.40;1.00
32348;DHT22;18821;44.800;10.326;2023-03-20T10:51:27;14.90;1.00
32348;DHT22;18821;44.800;10.326;2023-03-20T10:54:01;14.70;1.00
32348;DHT22;18821;44.800;10.326;2023-03-20T10:56:39;14.80;1.00
32348;DHT22;18821;44.800;10.326;2023-03-20T10:59:36;15.10;1.00
32348;DHT22;18821;44.800;10.326;2023-03-20T11:02:14;15.10;1.00
32348;DHT22;18821;44.800;10.326;2023-03-20T11:04:40;15.50;1.00
32348;DHT22;18821;44.800;10.326;2023-03-20T11:07:26;15.60;1.00
32348;DHT22;18821;44.800;10.326;2023-03-20T11:12:37;16.20;1.00
32348;DHT22;18821;44.800;10.326;2023-03-20T11:15:27;16.10;1.00
32348;DHT22;18821;44.800;10.326;2023-03-20T11:17:57;15.40;1.00
32348;DHT22;18821;44.800;10.326;2023-03-20T11:20:25;15.60;1.00
32348;DHT22;18821;44.800;10.326;2023-03-20T11:22:57;16.20;1.00
32348;DHT22;18821;44.800;10.326;2023-03-20T11:25:29;16.60;1.00
32348;DHT22;18821;44.800;10.326;2023-03-20T11:28:20;16.90;99.90
32348;DHT22;18821;44.800;10.326;2023-03-20T11:30:49;16.90;99.90
32348;DHT22;18821;44.800;10.326;2023-03-20T11:33:16;16.80;99.90
32348;DHT22;18821;44.800;10.326;2023-03-20T11:35:46;16.90;99.90
32348;DHT22;18821;44.800;10.326;2023-03-20T11:38:17;16.80;99.90
32348;DHT22;18821;44.800;10.326;2023-03-20T11:40:45;16.70;99.90
32348;DHT22;18821;44.800;10.326;2023-03-20T11:43:21;16.20;99.90
32348;DHT22;18821;44.800;10.326;2023-03-20T11:45:53;16.30;99.90
32348;DHT22;18821;44.800;10.326;2023-03-20T11:48:23;16.10;99.90
32348;DHT22;18821;44.800;10.326;2023-03-20T11:50:59;16.30;99.90
32348;DHT22;18821;44.800;10.326;2023-03-20T11:54:15;16.20;99.90
32348;DHT22;18821;44.800;10.326;2023-03-20T11:56:29;16.30;99.90
32348;DHT22;18821;44.800;10.326;2023-03-20T11:59:03;16.20;99.90
32348;DHT22;18821;44.800;10.326;2023-03-20T12:01:39;16.10;99.90
32348;DHT22;18821;44.800;10.326;2023-03-20T12:04:12;16.10;99.90
32348;DHT22;18821;44.800;10.326;2023-03-20T12:06:41;16.30;99.90
32348;DHT22;18821;44.800;10.326;2023-03-20T12:11:51;16.20;20.40
32348;DHT22;18821;44.800;10.326;2023-03-20T12:14:42;16.20;1.00
32348;DHT22;18821;44.800;10.326;2023-03-20T12:20:00;15.90;99.90
32348;DHT22;18821;44.800;10.326;2023-03-20T12:25:21;16.10;99.90
32348;DHT22;18821;44.800;10.326;2023-03-20T12:27:56;16.10;99.90
32348;DHT22;18821;44.800;10.326;2023-03-20T12:30:35;16.30;96.10
32348;DHT22;18821;44.800;10.326;2023-03-20T12:33:15;15.80;84.10
32348;DHT22;18821;44.800;10.326;2023-03-20T12:35:47;15.40;99.90
32348;DHT22;18821;44.800;10.326;2023-03-20T12:38:26;15.30;99.90
32348;DHT22;18821;44.800;10.326;2023-03-20T12:41:29;15.30;99.90
32348;DHT22;18821;44.800;10.326;2023-03-20T12:44:28;15.40;99.90
32348;DHT22;18821;44.800;10.326;2023-03-20T12:47:17;15.40;99.90
32348;DHT22;18821;44.800;10.326;2023-03-20T12:49:56;15.30;99.90
32348;DHT22;18821;44.800;10.326;2023-03-20T13:08:32;15.40;99.90
32348;DHT22;18821;44.800;10.326;2023-03-20T13:13:57;15.50;99.90
32348;DHT22;18821;44.800;10.326;2023-03-20T13:16:44;15.60;99.90
32348;DHT22;18821;44.800;10.326;2023-03-20T13:19:35;15.80;99.90
32348;DHT22;18821;44.800;10.326;2023-03-20T13:22:28;15.90;99.90
32348;DHT22;18821;44.800;10.326;2023-03-20T13:34:04;15.30;99.90
32348;DHT22;18821;44.800;10.326;2023-03-20T13:36:40;15.30;99.90
32348;DHT22;18821;44.800;10.326;2023-03-20T13:39:27;15.30;99.90
32348;DHT22;18821;44.800;10.326;2023-03-20T13:41:57;15.70;99.90
32348;DHT22;18821;44.800;10.326;2023-03-20T13:44:26;16.20;99.90
32348;DHT22;18821;44.800;10.326;2023-03-20T13:47:05;16.60;54.00
32348;DHT22;18821;44.800;10.326;2023-03-20T13:49:38;16.90;1.00
32348;DHT22;18821;44.800;10.326;2023-03-20T13:52:06;17.10;1.00
32348;DHT22;18821;44.800;10.326;2023-03-20T13:54:44;17.40;99.90
32348;DHT22;18821;44.800;10.326;2023-03-20T14:05:22;18.20;99.90
32348;DHT22;18821;44.800;10.326;2023-03-20T14:07:57;18.20;1.00
32348;DHT22;18821;44.800;10.326;2023-03-20T14:12:54;17.60;1.00
32348;DHT22;18821;44.800;10.326;2023-03-20T14:15:23;17.10;1.00
32348;DHT22;18821;44.800;10.326;2023-03-20T14:17:50;16.80;99.90
32348;DHT22;18821;44.800;10.326;2023-03-20T14:20:30;17.20;1.10
32348;DHT22;18821;44.800;10.326;2023-03-20T14:22:57;17.10;1.00
32348;DHT22;18821;44.800;10.326;2023-03-20T14:25:24;17.10;1.00
32348;DHT22;18821;44.800;10.326;2023-03-20T14:27:56;17.00;1.00
32348;DHT22;18821;44.800;10.326;2023-03-20T14:33:04;16.80;99.90
32348;DHT22;18821;44.800;10.326;2023-03-20T14:35:39;16.70;99.90
32348;DHT22;18821;44.800;10.326;2023-03-20T14:46:22;16.20;1.00
32348;DHT22;18821;44.800;10.326;2023-03-20T14:48:53;16.30;1.00
32348;DHT22;18821;44.800;10.326;2023-03-20T14:51:21;16.30;1.00
32348;DHT22;18821;44.800;10.326;2023-03-20T14:53:55;16.20;1.00
32348;DHT22;18821;44.800;10.326;2023-03-20T14:56:32;16.10;1.00
32348;DHT22;18821;44.800;10.326;2023-03-20T14:59:04;16.00;1.00
32348;DHT22;18821;44.800;10.326;2023-03-20T15:04:37;15.90;1.00
32348;DHT22;18821;44.800;10.326;2023-03-20T15:09:37;15.40;60.00
32348;DHT22;18821;44.800;10.326;2023-03-20T15:12:06;15.30;99.90
32348;DHT22;18821;44.800;10.326;2023-03-20T15:17:31;15.50;99.90
32348;DHT22;18821;44.800;10.326;2023-03-20T15:20:13;15.60;51.50
32348;DHT22;18821;44.800;10.326;2023-03-20T15:22:54;15.60;21.30
32348;DHT22;18821;44.800;10.326;2023-03-20T15:25:26;15.60;37.10
32348;DHT22;18821;44.800;10.326;2023-03-20T15:27:53;15.60;4.10
32348;DHT22;18821;44.800;10.326;2023-03-20T15:30:20;15.60;1.00
32348;DHT22;18821;44.800;10.326;2023-03-20T15:32:49;15.70;1.00
32348;DHT22;18821;44.800;10.326;2023-03-20T15:35:20;15.70;1.00
32348;DHT22;18821;44.800;10.326;2023-03-20T15:37:49;15.70;1.00
32348;DHT22;18821;44.800;10.326;2023-03-20T15:40:28;15.70;1.00
32348;DHT22;18821;44.800;10.326;2023-03-20T15:43:06;15.70;1.00
32348;DHT22;18821;44.800;10.326;2023-03-20T15:45:37;15.80;1.00
32348;DHT22;18821;44.800;10.326;2023-03-20T15:48:05;15.80;1.00
32348;DHT22;18821;44.800;10.326;2023-03-20T15:50:35;15.80;1.00
32348;DHT22;18821;44.800;10.326;2023-03-20T15:53:05;15.90;1.00
32348;DHT22;18821;44.800;10.326;2023-03-20T15:55:33;15.90;1.00
32348;DHT22;18821;44.800;10.326;2023-03-20T15:58:01;15.90;1.00
32348;DHT22;18821;44.800;10.326;2023-03-20T16:00:33;16.00;1.00
32348;DHT22;18821;44.800;10.326;2023-03-20T16:03:05;15.90;1.00
32348;DHT22;18821;44.800;10.326;2023-03-20T16:05:34;15.80;1.00
32348;DHT22;18821;44.800;10.326;2023-03-20T16:08:24;15.70;1.00
32348;DHT22;18821;44.800;10.326;2023-03-20T16:13:22;15.60;1.00
32348;DHT22;18821;44.800;10.326;2023-03-20T16:15:49;15.60;1.00
32348;DHT22;18821;44.800;10.326;2023-03-20T16:18:18;15.50;1.00
32348;DHT22;18821;44.800;10.326;2023-03-20T16:20:57;15.60;1.00
32348;DHT22;18821;44.800;10.326;2023-03-20T16:23:32;15.60;1.00
32348;DHT22;18821;44.800;10.326;2023-03-20T16:26:00;15.60;1.00
32348;DHT22;18821;44.800;10.326;2023-03-20T16:28:27;15.60;1.00
32348;DHT22;18821;44.800;10.326;2023-03-20T16:31:10;15.60;1.00
32348;DHT22;18821;44.800;10.326;2023-03-20T16:33:38;15.60;1.00
32348;DHT22;18821;44.800;10.326;2023-03-20T16:36:05;15.50;1.00
32348;DHT22;18821;44.800;10.326;2023-03-20T16:38:34;15.50;1.00
32348;DHT22;18821;44.800;10.326;2023-03-20T16:41:27;15.40;1.00
32348;DHT22;18821;44.800;10.326;2023-03-20T16:43:54;15.40;1.00
32348;DHT22;18821;44.800;10.326;2023-03-20T16:46:24;15.30;1.00
32348;DHT22;18821;44.800;10.326;2023-03-20T16:49:13;15.30;1.00
32348;DHT22;18821;44.800;10.326;2023-03-20T16:51:44;15.20;1.00
32348;DHT22;18821;44.800;10.326;2023-03-20T16:54:18;15.20;1.00
32348;DHT22;18821;44.800;10.326;2023-03-20T16:56:51;15.20;1.00
32348;DHT22;18821;44.800;10.326;2023-03-20T16:59:18;15.10;99.90
32348;DHT22;18821;44.800;10.326;2023-03-20T17:01:46;15.00;99.90
32348;DHT22;18821;44.800;10.326;2023-03-20T17:04:32;15.00;99.90
32348;DHT22;18821;44.800;10.326;2023-03-20T17:07:21;14.90;99.90
32348;DHT22;18821;44.800;10.326;2023-03-20T17:10:19;14.80;99.90
32348;DHT22;18821;44.800;10.326;2023-03-20T17:12:47;14.80;99.90
32348;DHT22;18821;44.800;10.326;2023-03-20T17:15:19;14.70;99.90
32348;DHT22;18821;44.800;10.326;2023-03-20T17:17:45;14.60;99.90
32348;DHT22;18821;44.800;10.326;2023-03-20T17:20:25;14.50;99.90
32348;DHT22;18821;44.800;10.326;2023-03-20T17:22:51;14.50;1.00
32348;DHT22;18821;44.800;10.326;2023-03-20T17:25:18;14.40;1.00
32348;DHT22;18821;44.800;10.326;2023-03-20T17:27:44;14.30;1.00
32348;DHT22;18821;44.800;10.326;2023-03-20T17:30:20;14.20;1.00
32348;DHT22;18821;44.800;10.326;2023-03-20T17:32:47;14.20;1.00
32348;DHT22;18821;44.800;10.326;2023-03-20T17:35:13;14.10;1.00
32348;DHT22;18821;44.800;10.326;2023-03-20T17:37:39;14.10;1.00
32348;DHT22;18821;44.800;10.326;2023-03-20T17:40:06;14.00;1.00
32348;DHT22;18821;44.800;10.326;2023-03-20T17:42:33;13.90;1.00
32348;DHT22;18821;44.800;10.326;2023-03-20T17:45:03;13.90;1.00
32348;DHT22;18821;44.800;10.326;2023-03-20T17:47:29;13.80;1.00
32348;DHT22;18821;44.800;10.326;2023-03-20T17:49:56;13.80;1.00
32348;DHT22;18821;44.800;10.326;2023-03-20T17:52:26;13.70;1.00
32348;DHT22;18821;44.800;10.326;2023-03-20T17:54:52;13.70;1.00
32348;DHT22;18821;44.800;10.326;2023-03-20T17:59:51;13.70;1.00
32348;DHT22;18821;44.800;10.326;2023-03-20T18:02:17;13.60;1.00
32348;DHT22;18821;44.800;10.326;2023-03-20T18:04:47;13.60;1.00
32348;DHT22;18821;44.800;10.326;2023-03-20T18:07:14;13.60;1.00
32348;DHT22;18821;44.800;10.326;2023-03-20T18:09:41;13.60;1.00
32348;DHT22;18821;44.800;10.326;2023-03-20T18:12:16;13.50;1.00